EGPB - Sumburgh Cape
Distance from station: E 5mi, 14km
Updated: 10/23/2017 6:50pm
Light rain, Mostly cloudy
Light rain, Mostly cloudy
 Wind from W
Wind: W 10 mph , 17 km/h
Temperature: 50°F , 10°C
Wind Chill: 46°F , 8°C
Dew Point: 46°F , 8°C
Humidity: 88%
Barometer: 29.68 inHg , 1005 hPa
Summary: Light Rain
Clouds: Mostly Cloudy
Visibility: 4 miles , 6 km
Cloud details: Mostly Cloudy 1300 ft
2017/10/24 01:50 EGPB 240150Z AUTO 26009KT 6000 -RA BKN013/// 10/08 Q1005